sensor_id;sensor_type;location;lat;lon;timestamp;P1;durP1;ratioP1;P2;durP2;ratioP2
12511;SDS011;6321;53.798;10.382;2023-09-08T00:02:18;10.23;;;9.33;;
12511;SDS011;6321;53.798;10.382;2023-09-08T00:04:44;12.93;;;10.50;;
12511;SDS011;6321;53.798;10.382;2023-09-08T00:07:10;12.30;;;10.87;;
12511;SDS011;6321;53.798;10.382;2023-09-08T00:09:36;11.03;;;10.00;;
12511;SDS011;6321;53.798;10.382;2023-09-08T00:12:02;11.33;;;9.43;;
12511;SDS011;6321;53.798;10.382;2023-09-08T00:14:28;10.53;;;9.23;;
12511;SDS011;6321;53.798;10.382;2023-09-08T00:16:54;9.80;;;8.83;;
12511;SDS011;6321;53.798;10.382;2023-09-08T00:19:20;11.27;;;9.63;;
12511;SDS011;6321;53.798;10.382;2023-09-08T00:21:46;10.60;;;9.60;;
12511;SDS011;6321;53.798;10.382;2023-09-08T00:24:12;11.60;;;9.87;;
12511;SDS011;6321;53.798;10.382;2023-09-08T00:26:38;11.07;;;9.97;;
12511;SDS011;6321;53.798;10.382;2023-09-08T00:29:04;10.60;;;9.50;;
12511;SDS011;6321;53.798;10.382;2023-09-08T00:31:29;11.87;;;9.23;;
12511;SDS011;6321;53.798;10.382;2023-09-08T00:33:55;11.17;;;9.87;;
12511;SDS011;6321;53.798;10.382;2023-09-08T00:36:21;10.80;;;9.37;;
12511;SDS011;6321;53.798;10.382;2023-09-08T00:38:47;11.77;;;9.37;;
12511;SDS011;6321;53.798;10.382;2023-09-08T00:41:13;10.00;;;9.10;;
12511;SDS011;6321;53.798;10.382;2023-09-08T00:43:39;9.30;;;8.50;;
12511;SDS011;6321;53.798;10.382;2023-09-08T00:46:05;10.93;;;9.23;;
12511;SDS011;6321;53.798;10.382;2023-09-08T00:48:31;10.97;;;9.77;;
12511;SDS011;6321;53.798;10.382;2023-09-08T00:50:59;9.77;;;8.87;;
12511;SDS011;6321;53.798;10.382;2023-09-08T00:53:25;10.77;;;9.10;;
12511;SDS011;6321;53.798;10.382;2023-09-08T00:55:51;11.50;;;9.53;;
12511;SDS011;6321;53.798;10.382;2023-09-08T00:58:17;10.50;;;9.07;;
12511;SDS011;6321;53.798;10.382;2023-09-08T01:00:43;10.80;;;9.80;;
12511;SDS011;6321;53.798;10.382;2023-09-08T01:03:09;10.53;;;9.60;;
12511;SDS011;6321;53.798;10.382;2023-09-08T01:05:35;9.80;;;8.90;;
12511;SDS011;6321;53.798;10.382;2023-09-08T01:08:01;10.97;;;9.13;;
12511;SDS011;6321;53.798;10.382;2023-09-08T01:10:27;10.50;;;9.50;;
12511;SDS011;6321;53.798;10.382;2023-09-08T01:12:53;10.50;;;9.50;;
12511;SDS011;6321;53.798;10.382;2023-09-08T01:15:19;10.90;;;9.90;;
12511;SDS011;6321;53.798;10.382;2023-09-08T01:17:45;11.40;;;10.30;;
12511;SDS011;6321;53.798;10.382;2023-09-08T01:25:21;11.77;;;10.70;;
12511;SDS011;6321;53.798;10.382;2023-09-08T01:27:52;11.27;;;9.30;;
12511;SDS011;6321;53.798;10.382;2023-09-08T01:30:18;10.90;;;9.80;;
12511;SDS011;6321;53.798;10.382;2023-09-08T01:32:45;11.20;;;9.43;;
12511;SDS011;6321;53.798;10.382;2023-09-08T01:35:11;9.87;;;9.00;;
12511;SDS011;6321;53.798;10.382;2023-09-08T01:37:47;10.03;;;9.20;;
12511;SDS011;6321;53.798;10.382;2023-09-08T01:40:13;9.97;;;8.97;;
12511;SDS011;6321;53.798;10.382;2023-09-08T01:42:40;11.37;;;9.67;;
12511;SDS011;6321;53.798;10.382;2023-09-08T01:45:06;10.17;;;8.63;;
12511;SDS011;6321;53.798;10.382;2023-09-08T01:47:32;12.80;;;10.17;;
12511;SDS011;6321;53.798;10.382;2023-09-08T01:49:58;10.83;;;9.60;;
12511;SDS011;6321;53.798;10.382;2023-09-08T01:52:24;10.63;;;9.53;;
12511;SDS011;6321;53.798;10.382;2023-09-08T01:54:50;10.93;;;9.23;;
12511;SDS011;6321;53.798;10.382;2023-09-08T01:57:16;10.63;;;9.73;;
12511;SDS011;6321;53.798;10.382;2023-09-08T01:59:42;10.80;;;9.70;;
12511;SDS011;6321;53.798;10.382;2023-09-08T02:02:09;11.33;;;10.10;;
12511;SDS011;6321;53.798;10.382;2023-09-08T02:04:35;9.70;;;8.60;;
12511;SDS011;6321;53.798;10.382;2023-09-08T02:07:01;10.77;;;9.33;;
12511;SDS011;6321;53.798;10.382;2023-09-08T02:09:32;12.47;;;10.20;;
12511;SDS011;6321;53.798;10.382;2023-09-08T02:11:58;10.87;;;9.77;;
12511;SDS011;6321;53.798;10.382;2023-09-08T02:14:24;13.17;;;9.80;;
12511;SDS011;6321;53.798;10.382;2023-09-08T02:16:50;10.93;;;9.23;;
12511;SDS011;6321;53.798;10.382;2023-09-08T02:19:16;11.17;;;9.67;;
12511;SDS011;6321;53.798;10.382;2023-09-08T02:21:42;10.27;;;8.73;;
12511;SDS011;6321;53.798;10.382;2023-09-08T02:24:08;9.77;;;8.87;;
12511;SDS011;6321;53.798;10.382;2023-09-08T02:26:34;11.53;;;9.10;;
12511;SDS011;6321;53.798;10.382;2023-09-08T02:29:00;10.13;;;9.17;;
12511;SDS011;6321;53.798;10.382;2023-09-08T02:31:27;9.57;;;8.67;;
12511;SDS011;6321;53.798;10.382;2023-09-08T02:33:53;11.97;;;10.13;;
12511;SDS011;6321;53.798;10.382;2023-09-08T02:36:19;9.53;;;8.73;;
12511;SDS011;6321;53.798;10.382;2023-09-08T02:38:53;9.33;;;8.43;;
12511;SDS011;6321;53.798;10.382;2023-09-08T02:41:19;10.00;;;9.10;;
12511;SDS011;6321;53.798;10.382;2023-09-08T02:43:46;9.27;;;8.37;;
12511;SDS011;6321;53.798;10.382;2023-09-08T02:46:12;10.07;;;9.20;;
12511;SDS011;6321;53.798;10.382;2023-09-08T02:48:38;10.30;;;9.37;;
12511;SDS011;6321;53.798;10.382;2023-09-08T02:51:04;12.10;;;9.67;;
12511;SDS011;6321;53.798;10.382;2023-09-08T02:53:30;11.10;;;10.10;;
12511;SDS011;6321;53.798;10.382;2023-09-08T02:55:56;10.00;;;9.17;;
12511;SDS011;6321;53.798;10.382;2023-09-08T02:58:22;10.03;;;9.17;;
12511;SDS011;6321;53.798;10.382;2023-09-08T03:00:49;10.77;;;9.60;;
12511;SDS011;6321;53.798;10.382;2023-09-08T03:03:17;10.77;;;9.67;;
12511;SDS011;6321;53.798;10.382;2023-09-08T03:05:43;11.43;;;9.67;;
12511;SDS011;6321;53.798;10.382;2023-09-08T03:08:08;10.07;;;9.07;;
12511;SDS011;6321;53.798;10.382;2023-09-08T03:10:34;9.67;;;8.67;;
12511;SDS011;6321;53.798;10.382;2023-09-08T03:13:01;9.30;;;8.40;;
12511;SDS011;6321;53.798;10.382;2023-09-08T03:15:26;9.70;;;8.73;;
12511;SDS011;6321;53.798;10.382;2023-09-08T03:17:54;9.00;;;8.20;;
12511;SDS011;6321;53.798;10.382;2023-09-08T03:20:20;9.10;;;8.30;;
12511;SDS011;6321;53.798;10.382;2023-09-08T03:22:46;8.57;;;7.40;;
12511;SDS011;6321;53.798;10.382;2023-09-08T03:25:13;11.10;;;8.23;;
12511;SDS011;6321;53.798;10.382;2023-09-08T03:27:39;8.87;;;7.97;;
12511;SDS011;6321;53.798;10.382;2023-09-08T03:30:05;9.37;;;8.43;;
12511;SDS011;6321;53.798;10.382;2023-09-08T03:32:31;8.93;;;8.03;;
12511;SDS011;6321;53.798;10.382;2023-09-08T03:34:57;8.60;;;7.80;;
12511;SDS011;6321;53.798;10.382;2023-09-08T03:37:23;8.50;;;7.73;;
12511;SDS011;6321;53.798;10.382;2023-09-08T03:39:51;8.80;;;7.90;;
12511;SDS011;6321;53.798;10.382;2023-09-08T03:42:17;8.93;;;8.13;;
12511;SDS011;6321;53.798;10.382;2023-09-08T03:44:42;9.17;;;8.27;;
12511;SDS011;6321;53.798;10.382;2023-09-08T03:47:08;9.70;;;8.70;;
12511;SDS011;6321;53.798;10.382;2023-09-08T03:49:34;11.20;;;9.50;;
12511;SDS011;6321;53.798;10.382;2023-09-08T03:52:00;11.63;;;10.50;;
12511;SDS011;6321;53.798;10.382;2023-09-08T03:54:26;12.07;;;11.03;;
12511;SDS011;6321;53.798;10.382;2023-09-08T03:56:52;12.07;;;10.90;;
12511;SDS011;6321;53.798;10.382;2023-09-08T03:59:18;12.63;;;11.43;;
12511;SDS011;6321;53.798;10.382;2023-09-08T04:01:44;13.77;;;12.30;;
12511;SDS011;6321;53.798;10.382;2023-09-08T04:04:10;12.17;;;10.80;;
12511;SDS011;6321;53.798;10.382;2023-09-08T04:06:36;12.63;;;11.33;;
12511;SDS011;6321;53.798;10.382;2023-09-08T04:09:02;12.40;;;11.27;;
12511;SDS011;6321;53.798;10.382;2023-09-08T04:11:28;11.93;;;10.90;;
12511;SDS011;6321;53.798;10.382;2023-09-08T04:13:54;12.47;;;10.57;;
12511;SDS011;6321;53.798;10.382;2023-09-08T04:16:20;11.63;;;10.53;;
12511;SDS011;6321;53.798;10.382;2023-09-08T04:18:46;12.67;;;11.57;;
12511;SDS011;6321;53.798;10.382;2023-09-08T04:21:12;12.00;;;10.83;;
12511;SDS011;6321;53.798;10.382;2023-09-08T04:23:38;11.00;;;9.90;;
12511;SDS011;6321;53.798;10.382;2023-09-08T04:26:04;12.13;;;10.40;;
12511;SDS011;6321;53.798;10.382;2023-09-08T04:28:30;12.27;;;11.17;;
12511;SDS011;6321;53.798;10.382;2023-09-08T04:30:56;13.90;;;12.57;;
12511;SDS011;6321;53.798;10.382;2023-09-08T04:33:23;13.07;;;11.77;;
12511;SDS011;6321;53.798;10.382;2023-09-08T04:35:49;13.90;;;12.50;;
12511;SDS011;6321;53.798;10.382;2023-09-08T04:38:15;13.73;;;12.33;;
12511;SDS011;6321;53.798;10.382;2023-09-08T04:40:41;14.37;;;12.77;;
12511;SDS011;6321;53.798;10.382;2023-09-08T04:43:07;14.50;;;13.07;;
12511;SDS011;6321;53.798;10.382;2023-09-08T04:45:33;13.87;;;12.50;;
12511;SDS011;6321;53.798;10.382;2023-09-08T04:47:59;17.77;;;15.27;;
12511;SDS011;6321;53.798;10.382;2023-09-08T04:50:24;15.00;;;13.60;;
12511;SDS011;6321;53.798;10.382;2023-09-08T04:52:50;15.43;;;13.93;;
12511;SDS011;6321;53.798;10.382;2023-09-08T04:55:17;15.93;;;14.27;;
12511;SDS011;6321;53.798;10.382;2023-09-08T04:57:44;18.73;;;15.63;;
12511;SDS011;6321;53.798;10.382;2023-09-08T05:00:10;17.43;;;15.67;;
12511;SDS011;6321;53.798;10.382;2023-09-08T05:02:36;16.13;;;14.37;;
12511;SDS011;6321;53.798;10.382;2023-09-08T05:05:03;16.13;;;14.53;;
12511;SDS011;6321;53.798;10.382;2023-09-08T05:07:29;16.13;;;14.53;;
12511;SDS011;6321;53.798;10.382;2023-09-08T05:09:55;21.13;;;16.20;;
12511;SDS011;6321;53.798;10.382;2023-09-08T05:12:21;21.13;;;16.67;;
12511;SDS011;6321;53.798;10.382;2023-09-08T05:14:47;17.97;;;16.07;;
12511;SDS011;6321;53.798;10.382;2023-09-08T05:17:12;17.60;;;15.87;;
12511;SDS011;6321;53.798;10.382;2023-09-08T05:19:38;18.43;;;16.63;;
12511;SDS011;6321;53.798;10.382;2023-09-08T05:22:05;18.27;;;16.23;;
12511;SDS011;6321;53.798;10.382;2023-09-08T05:24:33;18.63;;;16.83;;
12511;SDS011;6321;53.798;10.382;2023-09-08T05:26:59;19.03;;;17.13;;
12511;SDS011;6321;53.798;10.382;2023-09-08T05:29:25;18.83;;;17.03;;
12511;SDS011;6321;53.798;10.382;2023-09-08T05:31:51;18.97;;;17.07;;
12511;SDS011;6321;53.798;10.382;2023-09-08T05:34:17;19.03;;;16.87;;
12511;SDS011;6321;53.798;10.382;2023-09-08T05:36:43;17.57;;;15.77;;
12511;SDS011;6321;53.798;10.382;2023-09-08T05:39:09;18.37;;;16.47;;
12511;SDS011;6321;53.798;10.382;2023-09-08T05:41:36;18.43;;;16.53;;
12511;SDS011;6321;53.798;10.382;2023-09-08T05:44:02;17.27;;;15.57;;
12511;SDS011;6321;53.798;10.382;2023-09-08T05:46:28;17.03;;;15.33;;
12511;SDS011;6321;53.798;10.382;2023-09-08T05:48:54;17.70;;;16.00;;
12511;SDS011;6321;53.798;10.382;2023-09-08T05:51:20;23.03;;;15.90;;
12511;SDS011;6321;53.798;10.382;2023-09-08T05:53:45;17.03;;;14.53;;
12511;SDS011;6321;53.798;10.382;2023-09-08T05:56:11;17.23;;;15.10;;
12511;SDS011;6321;53.798;10.382;2023-09-08T05:58:37;15.40;;;13.80;;
12511;SDS011;6321;53.798;10.382;2023-09-08T06:01:03;15.53;;;13.90;;
12511;SDS011;6321;53.798;10.382;2023-09-08T06:03:30;17.37;;;13.80;;
12511;SDS011;6321;53.798;10.382;2023-09-08T06:05:56;15.20;;;13.60;;
12511;SDS011;6321;53.798;10.382;2023-09-08T06:08:22;18.17;;;14.70;;
12511;SDS011;6321;53.798;10.382;2023-09-08T06:10:48;15.47;;;13.90;;
12511;SDS011;6321;53.798;10.382;2023-09-08T06:13:14;14.90;;;13.40;;
12511;SDS011;6321;53.798;10.382;2023-09-08T06:15:40;14.83;;;13.17;;
12511;SDS011;6321;53.798;10.382;2023-09-08T06:18:06;14.63;;;13.17;;
12511;SDS011;6321;53.798;10.382;2023-09-08T06:20:32;14.40;;;13.00;;
12511;SDS011;6321;53.798;10.382;2023-09-08T06:22:58;16.53;;;13.23;;
12511;SDS011;6321;53.798;10.382;2023-09-08T06:25:24;14.40;;;13.00;;
12511;SDS011;6321;53.798;10.382;2023-09-08T06:27:50;13.47;;;12.07;;
12511;SDS011;6321;53.798;10.382;2023-09-08T06:30:15;15.00;;;12.10;;
12511;SDS011;6321;53.798;10.382;2023-09-08T06:32:43;13.63;;;12.33;;
12511;SDS011;6321;53.798;10.382;2023-09-08T06:35:09;13.93;;;12.63;;
12511;SDS011;6321;53.798;10.382;2023-09-08T06:37:38;13.33;;;12.07;;
12511;SDS011;6321;53.798;10.382;2023-09-08T06:40:24;13.53;;;12.23;;
12511;SDS011;6321;53.798;10.382;2023-09-08T06:42:50;16.30;;;12.27;;
12511;SDS011;6321;53.798;10.382;2023-09-08T06:45:16;13.93;;;12.00;;
12511;SDS011;6321;53.798;10.382;2023-09-08T06:47:42;13.80;;;12.37;;
12511;SDS011;6321;53.798;10.382;2023-09-08T06:50:09;14.50;;;11.37;;
12511;SDS011;6321;53.798;10.382;2023-09-08T06:52:35;13.10;;;11.90;;
12511;SDS011;6321;53.798;10.382;2023-09-08T06:55:01;13.03;;;11.67;;
12511;SDS011;6321;53.798;10.382;2023-09-08T06:57:27;12.87;;;10.60;;
12511;SDS011;6321;53.798;10.382;2023-09-08T06:59:53;13.10;;;11.87;;
12511;SDS011;6321;53.798;10.382;2023-09-08T07:02:19;12.50;;;11.30;;
12511;SDS011;6321;53.798;10.382;2023-09-08T07:04:44;15.23;;;12.17;;
12511;SDS011;6321;53.798;10.382;2023-09-08T07:07:10;15.50;;;11.60;;
12511;SDS011;6321;53.798;10.382;2023-09-08T07:09:36;14.13;;;12.27;;
12511;SDS011;6321;53.798;10.382;2023-09-08T07:12:04;13.17;;;11.03;;
12511;SDS011;6321;53.798;10.382;2023-09-08T07:14:30;12.17;;;11.07;;
12511;SDS011;6321;53.798;10.382;2023-09-08T07:16:56;11.70;;;10.60;;
12511;SDS011;6321;53.798;10.382;2023-09-08T07:19:22;10.70;;;9.80;;
12511;SDS011;6321;53.798;10.382;2023-09-08T07:21:48;12.40;;;11.07;;
12511;SDS011;6321;53.798;10.382;2023-09-08T07:24:14;12.23;;;10.93;;
12511;SDS011;6321;53.798;10.382;2023-09-08T07:26:40;11.60;;;10.40;;
12511;SDS011;6321;53.798;10.382;2023-09-08T07:29:06;13.93;;;11.60;;
12511;SDS011;6321;53.798;10.382;2023-09-08T07:31:32;13.10;;;11.80;;
12511;SDS011;6321;53.798;10.382;2023-09-08T07:33:58;16.17;;;14.57;;
12511;SDS011;6321;53.798;10.382;2023-09-08T07:36:24;17.53;;;15.73;;
12511;SDS011;6321;53.798;10.382;2023-09-08T07:38:50;13.40;;;11.20;;
12511;SDS011;6321;53.798;10.382;2023-09-08T07:41:16;12.07;;;10.80;;
12511;SDS011;6321;53.798;10.382;2023-09-08T07:43:42;13.50;;;11.07;;
12511;SDS011;6321;53.798;10.382;2023-09-08T07:46:10;11.03;;;9.57;;
12511;SDS011;6321;53.798;10.382;2023-09-08T07:48:36;11.90;;;10.80;;
12511;SDS011;6321;53.798;10.382;2023-09-08T07:51:02;10.53;;;9.53;;
12511;SDS011;6321;53.798;10.382;2023-09-08T07:53:28;13.97;;;10.77;;
12511;SDS011;6321;53.798;10.382;2023-09-08T07:55:54;11.87;;;10.30;;
12511;SDS011;6321;53.798;10.382;2023-09-08T07:58:21;11.23;;;10.13;;
12511;SDS011;6321;53.798;10.382;2023-09-08T08:00:47;18.40;;;10.53;;
12511;SDS011;6321;53.798;10.382;2023-09-08T08:03:13;10.47;;;9.40;;
12511;SDS011;6321;53.798;10.382;2023-09-08T08:05:39;10.30;;;9.27;;
12511;SDS011;6321;53.798;10.382;2023-09-08T08:08:05;11.80;;;9.53;;
12511;SDS011;6321;53.798;10.382;2023-09-08T08:10:31;11.77;;;8.97;;
12511;SDS011;6321;53.798;10.382;2023-09-08T08:12:57;10.07;;;9.07;;
12511;SDS011;6321;53.798;10.382;2023-09-08T08:15:34;10.70;;;9.63;;
12511;SDS011;6321;53.798;10.382;2023-09-08T08:18:00;9.57;;;8.50;;
12511;SDS011;6321;53.798;10.382;2023-09-08T08:20:26;10.17;;;9.23;;
12511;SDS011;6321;53.798;10.382;2023-09-08T08:22:52;9.73;;;8.80;;
12511;SDS011;6321;53.798;10.382;2023-09-08T08:25:17;9.97;;;8.77;;
12511;SDS011;6321;53.798;10.382;2023-09-08T08:27:43;9.63;;;8.53;;
12511;SDS011;6321;53.798;10.382;2023-09-08T08:30:09;10.87;;;7.90;;
12511;SDS011;6321;53.798;10.382;2023-09-08T08:32:36;10.10;;;8.77;;
12511;SDS011;6321;53.798;10.382;2023-09-08T08:35:02;10.53;;;8.60;;
12511;SDS011;6321;53.798;10.382;2023-09-08T08:37:29;9.83;;;8.93;;
12511;SDS011;6321;53.798;10.382;2023-09-08T08:39:55;9.80;;;8.60;;
12511;SDS011;6321;53.798;10.382;2023-09-08T08:42:21;9.63;;;8.33;;
12511;SDS011;6321;53.798;10.382;2023-09-08T08:44:47;9.10;;;8.10;;
12511;SDS011;6321;53.798;10.382;2023-09-08T08:47:14;8.93;;;8.13;;
12511;SDS011;6321;53.798;10.382;2023-09-08T08:49:42;9.63;;;8.63;;
12511;SDS011;6321;53.798;10.382;2023-09-08T08:52:11;9.13;;;8.33;;
12511;SDS011;6321;53.798;10.382;2023-09-08T08:54:40;13.03;;;9.03;;
12511;SDS011;6321;53.798;10.382;2023-09-08T08:57:07;11.17;;;8.67;;
12511;SDS011;6321;53.798;10.382;2023-09-08T08:59:34;7.93;;;7.13;;
12511;SDS011;6321;53.798;10.382;2023-09-08T09:02:00;9.07;;;7.47;;
12511;SDS011;6321;53.798;10.382;2023-09-08T09:04:28;8.43;;;7.37;;
12511;SDS011;6321;53.798;10.382;2023-09-08T09:06:55;10.97;;;7.67;;
12511;SDS011;6321;53.798;10.382;2023-09-08T09:09:21;8.50;;;7.70;;
12511;SDS011;6321;53.798;10.382;2023-09-08T09:11:47;7.97;;;7.17;;
12511;SDS011;6321;53.798;10.382;2023-09-08T09:14:13;8.07;;;7.37;;
12511;SDS011;6321;53.798;10.382;2023-09-08T09:16:42;6.90;;;6.20;;
12511;SDS011;6321;53.798;10.382;2023-09-08T09:19:08;8.70;;;6.70;;
12511;SDS011;6321;53.798;10.382;2023-09-08T09:21:45;7.40;;;6.70;;
12511;SDS011;6321;53.798;10.382;2023-09-08T09:24:16;7.63;;;6.90;;
12511;SDS011;6321;53.798;10.382;2023-09-08T09:26:42;8.43;;;7.00;;
12511;SDS011;6321;53.798;10.382;2023-09-08T09:29:12;7.77;;;6.57;;
12511;SDS011;6321;53.798;10.382;2023-09-08T09:31:49;7.13;;;6.50;;
12511;SDS011;6321;53.798;10.382;2023-09-08T09:34:16;7.60;;;6.87;;
12511;SDS011;6321;53.798;10.382;2023-09-08T09:36:42;7.30;;;6.60;;
12511;SDS011;6321;53.798;10.382;2023-09-08T09:39:10;7.33;;;6.63;;
12511;SDS011;6321;53.798;10.382;2023-09-08T09:41:36;10.30;;;6.97;;
12511;SDS011;6321;53.798;10.382;2023-09-08T09:44:02;7.73;;;6.93;;
12511;SDS011;6321;53.798;10.382;2023-09-08T09:46:28;7.10;;;6.10;;
12511;SDS011;6321;53.798;10.382;2023-09-08T09:48:55;7.27;;;6.53;;
12511;SDS011;6321;53.798;10.382;2023-09-08T09:51:24;7.73;;;6.93;;
12511;SDS011;6321;53.798;10.382;2023-09-08T09:53:50;7.20;;;6.50;;
12511;SDS011;6321;53.798;10.382;2023-09-08T09:56:16;7.27;;;6.57;;
12511;SDS011;6321;53.798;10.382;2023-09-08T09:58:42;7.70;;;6.57;;
12511;SDS011;6321;53.798;10.382;2023-09-08T10:01:10;8.13;;;6.50;;
12511;SDS011;6321;53.798;10.382;2023-09-08T10:03:37;7.70;;;6.43;;
12511;SDS011;6321;53.798;10.382;2023-09-08T10:06:03;8.23;;;6.90;;
12511;SDS011;6321;53.798;10.382;2023-09-08T10:08:30;6.70;;;6.07;;
12511;SDS011;6321;53.798;10.382;2023-09-08T10:10:58;10.57;;;6.73;;
12511;SDS011;6321;53.798;10.382;2023-09-08T10:13:27;6.83;;;6.13;;
12511;SDS011;6321;53.798;10.382;2023-09-08T10:15:54;7.47;;;6.50;;
12511;SDS011;6321;53.798;10.382;2023-09-08T10:18:23;6.50;;;5.90;;
12511;SDS011;6321;53.798;10.382;2023-09-08T10:20:51;9.63;;;6.77;;
12511;SDS011;6321;53.798;10.382;2023-09-08T10:23:27;8.30;;;6.50;;
12511;SDS011;6321;53.798;10.382;2023-09-08T10:25:59;6.90;;;6.30;;
12511;SDS011;6321;53.798;10.382;2023-09-08T10:28:29;9.73;;;6.17;;
12511;SDS011;6321;53.798;10.382;2023-09-08T10:30:56;7.43;;;6.23;;
12511;SDS011;6321;53.798;10.382;2023-09-08T10:33:22;6.53;;;5.90;;
12511;SDS011;6321;53.798;10.382;2023-09-08T10:35:49;9.43;;;6.70;;
12511;SDS011;6321;53.798;10.382;2023-09-08T10:38:28;7.70;;;6.90;;
12511;SDS011;6321;53.798;10.382;2023-09-08T10:41:25;9.97;;;6.43;;
12511;SDS011;6321;53.798;10.382;2023-09-08T10:43:40;7.40;;;6.53;;
12511;SDS011;6321;53.798;10.382;2023-09-08T10:46:09;7.23;;;6.53;;
12511;SDS011;6321;53.798;10.382;2023-09-08T10:48:42;6.73;;;6.00;;
12511;SDS011;6321;53.798;10.382;2023-09-08T10:51:18;7.07;;;6.47;;
12511;SDS011;6321;53.798;10.382;2023-09-08T10:53:47;6.97;;;6.27;;
12511;SDS011;6321;53.798;10.382;2023-09-08T10:56:14;8.97;;;5.83;;
12511;SDS011;6321;53.798;10.382;2023-09-08T10:58:40;8.97;;;6.20;;
12511;SDS011;6321;53.798;10.382;2023-09-08T11:01:08;8.60;;;6.93;;
12511;SDS011;6321;53.798;10.382;2023-09-08T11:06:06;7.53;;;6.80;;
12511;SDS011;6321;53.798;10.382;2023-09-08T11:08:33;6.70;;;6.07;;
12511;SDS011;6321;53.798;10.382;2023-09-08T11:11:00;6.50;;;5.90;;
12511;SDS011;6321;53.798;10.382;2023-09-08T11:13:26;10.03;;;6.20;;
12511;SDS011;6321;53.798;10.382;2023-09-08T11:15:55;6.50;;;5.90;;
12511;SDS011;6321;53.798;10.382;2023-09-08T11:18:25;8.00;;;6.47;;
12511;SDS011;6321;53.798;10.382;2023-09-08T11:20:52;7.47;;;6.60;;
12511;SDS011;6321;53.798;10.382;2023-09-08T11:23:18;7.57;;;6.13;;
12511;SDS011;6321;53.798;10.382;2023-09-08T11:25:44;5.90;;;5.40;;
12511;SDS011;6321;53.798;10.382;2023-09-08T11:28:10;7.20;;;5.93;;
12511;SDS011;6321;53.798;10.382;2023-09-08T11:30:36;8.50;;;5.60;;
12511;SDS011;6321;53.798;10.382;2023-09-08T11:33:02;6.53;;;5.93;;
12511;SDS011;6321;53.798;10.382;2023-09-08T11:35:27;8.80;;;6.03;;
12511;SDS011;6321;53.798;10.382;2023-09-08T11:37:58;6.13;;;5.63;;
12511;SDS011;6321;53.798;10.382;2023-09-08T11:40:25;6.40;;;5.80;;
12511;SDS011;6321;53.798;10.382;2023-09-08T11:42:51;5.63;;;5.10;;
12511;SDS011;6321;53.798;10.382;2023-09-08T11:45:19;5.43;;;4.93;;
12511;SDS011;6321;53.798;10.382;2023-09-08T11:47:46;5.90;;;5.30;;
12511;SDS011;6321;53.798;10.382;2023-09-08T11:50:14;5.00;;;4.60;;
12511;SDS011;6321;53.798;10.382;2023-09-08T11:52:49;7.53;;;5.73;;
12511;SDS011;6321;53.798;10.382;2023-09-08T11:55:15;6.57;;;5.40;;
12511;SDS011;6321;53.798;10.382;2023-09-08T11:57:43;5.40;;;4.90;;
12511;SDS011;6321;53.798;10.382;2023-09-08T12:00:10;7.80;;;5.50;;
12511;SDS011;6321;53.798;10.382;2023-09-08T12:02:40;5.73;;;5.23;;
12511;SDS011;6321;53.798;10.382;2023-09-08T12:05:11;5.50;;;5.00;;
12511;SDS011;6321;53.798;10.382;2023-09-08T12:07:37;6.70;;;5.53;;
12511;SDS011;6321;53.798;10.382;2023-09-08T12:10:06;5.73;;;5.03;;
12511;SDS011;6321;53.798;10.382;2023-09-08T12:12:32;6.57;;;5.50;;
12511;SDS011;6321;53.798;10.382;2023-09-08T12:14:58;5.67;;;5.13;;
12511;SDS011;6321;53.798;10.382;2023-09-08T12:17:24;6.07;;;5.30;;
12511;SDS011;6321;53.798;10.382;2023-09-08T12:19:51;4.83;;;4.17;;
12511;SDS011;6321;53.798;10.382;2023-09-08T12:22:17;5.43;;;4.93;;
12511;SDS011;6321;53.798;10.382;2023-09-08T12:24:55;5.77;;;5.27;;
12511;SDS011;6321;53.798;10.382;2023-09-08T12:27:21;5.80;;;5.27;;
12511;SDS011;6321;53.798;10.382;2023-09-08T12:30:00;6.23;;;5.50;;
12511;SDS011;6321;53.798;10.382;2023-09-08T12:32:29;5.13;;;4.70;;
12511;SDS011;6321;53.798;10.382;2023-09-08T12:34:55;5.20;;;4.70;;
12511;SDS011;6321;53.798;10.382;2023-09-08T12:37:22;6.53;;;5.70;;
12511;SDS011;6321;53.798;10.382;2023-09-08T12:39:48;5.87;;;5.33;;
12511;SDS011;6321;53.798;10.382;2023-09-08T12:42:14;5.77;;;5.07;;
12511;SDS011;6321;53.798;10.382;2023-09-08T12:44:40;5.03;;;4.63;;
12511;SDS011;6321;53.798;10.382;2023-09-08T12:47:06;6.90;;;5.10;;
12511;SDS011;6321;53.798;10.382;2023-09-08T12:49:32;5.30;;;4.50;;
12511;SDS011;6321;53.798;10.382;2023-09-08T12:51:58;5.60;;;5.20;;
12511;SDS011;6321;53.798;10.382;2023-09-08T12:54:24;5.43;;;4.83;;
12511;SDS011;6321;53.798;10.382;2023-09-08T12:56:50;7.73;;;5.33;;
12511;SDS011;6321;53.798;10.382;2023-09-08T12:59:16;6.83;;;5.87;;
12511;SDS011;6321;53.798;10.382;2023-09-08T13:01:42;6.10;;;4.80;;
12511;SDS011;6321;53.798;10.382;2023-09-08T13:04:08;5.20;;;4.67;;
12511;SDS011;6321;53.798;10.382;2023-09-08T13:06:34;5.70;;;5.20;;
12511;SDS011;6321;53.798;10.382;2023-09-08T13:09:00;5.83;;;4.87;;
12511;SDS011;6321;53.798;10.382;2023-09-08T13:11:26;6.03;;;5.03;;
12511;SDS011;6321;53.798;10.382;2023-09-08T13:13:53;5.20;;;4.77;;
12511;SDS011;6321;53.798;10.382;2023-09-08T13:16:19;7.05;;;4.97;;
12511;SDS011;6321;53.798;10.382;2023-09-08T13:18:44;6.03;;;5.43;;
12511;SDS011;6321;53.798;10.382;2023-09-08T13:21:11;7.13;;;5.40;;
12511;SDS011;6321;53.798;10.382;2023-09-08T13:23:37;5.47;;;4.97;;
12511;SDS011;6321;53.798;10.382;2023-09-08T13:26:03;5.75;;;4.82;;
12511;SDS011;6321;53.798;10.382;2023-09-08T13:28:29;5.53;;;5.05;;
12511;SDS011;6321;53.798;10.382;2023-09-08T13:30:54;5.78;;;5.22;;
12511;SDS011;6321;53.798;10.382;2023-09-08T13:33:20;7.00;;;5.20;;
12511;SDS011;6321;53.798;10.382;2023-09-08T13:35:47;5.22;;;4.72;;
12511;SDS011;6321;53.798;10.382;2023-09-08T13:38:13;6.25;;;5.50;;
12511;SDS011;6321;53.798;10.382;2023-09-08T13:40:39;5.47;;;5.05;;
12511;SDS011;6321;53.798;10.382;2023-09-08T13:43:06;6.45;;;5.85;;
12511;SDS011;6321;53.798;10.382;2023-09-08T13:45:32;5.93;;;5.47;;
12511;SDS011;6321;53.798;10.382;2023-09-08T13:47:58;6.22;;;5.72;;
12511;SDS011;6321;53.798;10.382;2023-09-08T13:50:24;5.78;;;5.20;;
12511;SDS011;6321;53.798;10.382;2023-09-08T13:52:50;6.57;;;5.20;;
12511;SDS011;6321;53.798;10.382;2023-09-08T13:55:17;6.30;;;5.77;;
12511;SDS011;6321;53.798;10.382;2023-09-08T13:57:48;8.53;;;5.27;;
12511;SDS011;6321;53.798;10.382;2023-09-08T14:00:14;6.00;;;5.50;;
12511;SDS011;6321;53.798;10.382;2023-09-08T14:02:40;5.93;;;5.43;;
12511;SDS011;6321;53.798;10.382;2023-09-08T14:05:06;5.93;;;4.70;;
12511;SDS011;6321;53.798;10.382;2023-09-08T14:07:32;6.43;;;4.90;;
12511;SDS011;6321;53.798;10.382;2023-09-08T14:09:58;5.50;;;4.67;;
12511;SDS011;6321;53.798;10.382;2023-09-08T14:12:26;5.22;;;4.72;;
12511;SDS011;6321;53.798;10.382;2023-09-08T14:14:52;5.88;;;5.30;;
12511;SDS011;6321;53.798;10.382;2023-09-08T14:17:18;6.03;;;5.50;;
12511;SDS011;6321;53.798;10.382;2023-09-08T14:19:44;5.97;;;5.38;;
12511;SDS011;6321;53.798;10.382;2023-09-08T14:22:10;5.87;;;5.27;;
12511;SDS011;6321;53.798;10.382;2023-09-08T14:24:36;5.30;;;4.70;;
12511;SDS011;6321;53.798;10.382;2023-09-08T14:27:02;5.70;;;5.10;;
12511;SDS011;6321;53.798;10.382;2023-09-08T14:29:28;6.03;;;5.53;;
12511;SDS011;6321;53.798;10.382;2023-09-08T14:31:54;6.57;;;5.13;;
12511;SDS011;6321;53.798;10.382;2023-09-08T14:34:20;7.27;;;5.17;;
12511;SDS011;6321;53.798;10.382;2023-09-08T14:36:46;6.47;;;4.87;;
12511;SDS011;6321;53.798;10.382;2023-09-08T14:39:13;6.45;;;5.30;;
12511;SDS011;6321;53.798;10.382;2023-09-08T14:41:40;8.30;;;5.85;;